Time;durP1;ratioP1;P1;durP2;ratioP2;P2;SDS_P1;SDS_P2;PMS_P1;PMS_P2;Temp;Humidity;BMP_temperature;BMP_pressure;BME280_temperature;BME280_humidity;BME280_pressure;Samples;Min_cycle;Max_cycle;Signal;HPM_P1;HPM_P2
2023/03/13 00:02:24;;;;;;;16.25;10.05;;;;;;;10.40;68.43;101395.19;4978464;28;20062;-80
2023/03/13 00:04:54;;;;;;;16.15;10.40;;;;;;;10.63;68.86;101435.91;4974306;28;20046;-78
2023/03/13 00:07:21;;;;;;;20.48;11.43;;;;;;;10.59;68.23;101415.88;4989956;28;20213;-75
2023/03/13 00:09:57;;;;;;;18.20;10.82;;;;;;;10.57;69.04;101431.06;4976185;28;20264;-77
2023/03/13 00:12:33;;;;;;;18.02;10.10;;;;;;;10.58;68.95;101432.75;4991870;28;20359;-77
2023/03/13 00:15:01;;;;;;;16.55;11.15;;;;;;;10.53;68.79;101421.63;4976299;28;20073;-79
2023/03/13 00:17:29;;;;;;;17.42;10.68;;;;;;;10.33;68.83;101408.06;4990688;28;20397;-77
2023/03/13 00:19:57;;;;;;;19.67;13.27;;;;;;;10.40;68.55;101435.84;4973363;28;20137;-79
2023/03/13 00:22:27;;;;;;;20.35;12.38;;;;;;;9.82;69.28;101345.47;4987171;28;20116;-79
2023/03/13 00:25:08;;;;;;;26.38;14.35;;;;;;;9.95;69.33;101379.91;4961119;28;20061;-80
2023/03/13 00:27:34;;;;;;;26.70;14.02;;;;;;;10.32;69.97;101454.16;4991472;28;20061;-78
2023/03/13 00:30:01;;;;;;;25.60;13.50;;;;;;;10.18;69.50;101430.41;4975621;28;20046;-78
2023/03/13 00:32:46;;;;;;;18.02;12.13;;;;;;;9.98;69.88;101413.31;4976995;28;20050;-78
2023/03/13 00:35:15;;;;;;;16.90;12.27;;;;;;;10.22;70.49;101464.56;4974808;28;20057;-77
2023/03/13 00:37:45;;;;;;;23.48;12.65;;;;;;;10.16;70.72;101458.88;4992475;28;20050;-79
2023/03/13 00:40:12;;;;;;;15.80;11.63;;;;;;;10.17;70.37;101460.53;4989544;28;20051;-76
2023/03/13 00:42:38;;;;;;;19.38;11.50;;;;;;;9.88;70.43;101413.16;4990132;28;20499;-77
2023/03/13 00:45:05;;;;;;;15.80;11.80;;;;;;;10.09;70.38;101436.41;4973672;28;20105;-77
2023/03/13 00:47:43;;;;;;;18.77;10.63;;;;;;;10.20;70.59;101450.56;4974714;28;20046;-79
2023/03/13 00:50:10;;;;;;;15.95;10.55;;;;;;;10.15;70.63;101438.59;4975944;28;20285;-79
2023/03/13 00:52:37;;;;;;;22.45;12.68;;;;;;;9.76;70.15;101383.06;4990537;28;20112;-78
2023/03/13 00:55:05;;;;;;;19.58;11.82;;;;;;;10.30;69.96;101471.16;4971688;28;20051;-79
2023/03/13 00:57:36;;;;;;;22.20;11.13;;;;;;;10.21;70.41;101457.56;4987467;28;20372;-79
2023/03/13 01:00:10;;;;;;;17.42;10.77;;;;;;;10.11;69.93;101451.25;4974706;28;20384;-80
2023/03/13 01:02:42;;;;;;;18.52;11.85;;;;;;;10.22;70.33;101475.19;4973959;28;20915;-79
2023/03/13 01:05:12;;;;;;;;;;;;;;;10.19;71.13;101469.25;4991426;28;20054;-80
2023/03/13 01:07:58;;;;;;;27.35;12.02;;;;;;;10.19;70.77;101467.44;4989229;28;20371;-79
2023/03/13 01:10:28;;;;;;;21.30;11.30;;;;;;;10.14;70.70;101469.56;4954670;28;20066;-79
2023/03/13 01:12:57;;;;;;;20.85;10.73;;;;;;;10.27;70.76;101458.94;4975877;28;20113;-79
2023/03/13 01:15:24;;;;;;;21.35;11.05;;;;;;;10.45;70.87;101454.06;4976635;28;20218;-80
2023/03/13 01:17:51;;;;;;;21.75;11.95;;;;;;;10.41;70.32;101429.59;4977440;28;20112;-80
2023/03/13 01:20:28;;;;;;;18.15;10.88;;;;;;;10.44;70.07;101418.72;4998320;28;20054;-78
2023/03/13 01:22:54;;;;;;;22.65;10.43;;;;;;;10.48;69.70;101425.50;4957336;28;20077;-82
2023/03/13 01:25:21;;;;;;;20.05;11.43;;;;;;;10.79;68.72;101452.38;4972695;28;20409;-79
2023/03/13 01:27:51;;;;;;;19.00;10.32;;;;;;;10.74;68.97;101443.91;4991689;28;20046;-81
2023/03/13 01:30:23;;;;;;;27.25;11.93;;;;;;;10.60;69.50;101436.16;4974769;28;20054;-80
2023/03/13 01:32:56;;;;;;;17.58;11.18;;;;;;;10.48;68.95;101414.91;4989699;28;20153;-79
2023/03/13 01:35:23;;;;;;;33.42;14.80;;;;;;;10.44;68.96;101412.59;4973832;28;20258;-83
2023/03/13 01:37:58;;;;;;;33.53;16.23;;;;;;;10.17;69.36;101371.19;4973543;28;20126;-81
2023/03/13 01:40:28;;;;;;;22.83;13.65;;;;;;;10.55;69.50;101440.97;4989312;28;20363;-82
2023/03/13 01:42:59;;;;;;;23.58;13.55;;;;;;;10.46;69.85;101429.22;4991099;28;20058;-79
2023/03/13 01:45:52;;;;;;;28.58;15.73;;;;;;;10.46;69.68;101438.06;4972286;28;20527;-81
2023/03/13 01:48:28;;;;;;;36.50;19.45;;;;;;;10.37;69.35;101444.03;4975800;28;20086;-81
2023/03/13 01:50:59;;;;;;;22.30;14.10;;;;;;;10.11;69.79;101418.56;4992442;28;20098;-81
2023/03/13 01:53:33;;;;;;;27.85;13.60;;;;;;;9.58;70.38;101349.94;4979415;28;20062;-79
2023/03/13 01:56:07;;;;;;;27.13;13.95;;;;;;;9.85;70.81;101397.44;4980779;28;20464;-79
2023/03/13 01:58:34;;;;;;;;;;;;;;;10.01;71.49;101431.66;5009793;28;20101;-81
2023/03/13 02:01:19;;;;;;;24.08;11.35;;;;;;;9.92;71.14;101417.25;4963212;28;19922;-81
2023/03/13 02:03:48;;;;;;;26.83;11.35;;;;;;;9.75;71.86;101380.50;4953202;28;20635;-82
2023/03/13 02:06:17;;;;;;;24.67;10.57;;;;;;;9.99;71.96;101405.22;4927765;29;20051;-80
2023/03/13 02:08:53;;;;;;;18.48;11.07;;;;;;;10.02;71.96;101407.69;4908992;29;20553;-80
2023/03/13 02:11:57;;;;;;;22.40;11.27;;;;;;;9.54;71.87;101320.16;4907205;29;20055;-80
2023/03/13 02:14:27;;;;;;;20.97;10.50;;;;;;;10.02;72.27;101389.13;4920816;29;20387;-80
2023/03/13 02:16:54;;;;;;;18.88;9.88;;;;;;;10.13;71.62;101401.56;4896413;29;20423;-80
2023/03/13 02:19:35;;;;;;;15.77;9.95;;;;;;;10.05;71.56;101388.88;4914996;29;20055;-81
2023/03/13 02:22:19;;;;;;;17.65;10.40;;;;;;;10.14;71.52;101394.44;4926572;29;20051;-82
2023/03/13 02:24:56;;;;;;;18.52;10.60;;;;;;;10.12;71.62;101399.00;4917870;29;20330;-81
2023/03/13 02:27:23;;;;;;;16.35;10.18;;;;;;;10.16;71.19;101403.13;4917075;29;20055;-80
2023/03/13 02:29:52;;;;;;;14.93;9.70;;;;;;;10.02;71.66;101373.19;4918674;28;20136;-81
2023/03/13 02:32:18;;;;;;;16.42;9.93;;;;;;;9.92;71.30;101323.56;4956187;28;20085;-81
2023/03/13 02:34:49;;;;;;;13.75;8.65;;;;;;;10.08;70.88;101315.34;4974434;28;20862;-80
2023/03/13 02:37:17;;;;;;;15.20;9.20;;;;;;;10.64;70.44;101380.03;4974103;28;20304;-81
2023/03/13 02:39:49;;;;;;;16.70;8.30;;;;;;;10.68;69.36;101373.53;4974764;28;20734;-80
2023/03/13 02:42:21;;;;;;;17.65;9.70;;;;;;;10.67;69.60;101352.41;4960290;28;20493;-81
2023/03/13 02:44:51;;;;;;;14.02;8.90;;;;;;;10.78;69.19;101364.88;4958797;28;20250;-80
2023/03/13 02:47:21;;;;;;;16.00;9.07;;;;;;;10.68;69.10;101351.44;4959650;28;20058;-79
2023/03/13 02:49:49;;;;;;;18.73;8.32;;;;;;;10.63;69.13;101335.00;4967221;28;20084;-79
2023/03/13 02:52:36;;;;;;;16.67;8.05;;;;;;;10.79;68.71;101356.75;4974006;28;20057;-80
2023/03/13 02:55:27;;;;;;;19.30;8.68;;;;;;;10.84;68.79;101354.59;4958018;28;20086;-81
2023/03/13 02:57:53;;;;;;;15.55;7.82;;;;;;;10.82;68.39;101321.97;4975863;28;20179;-82
2023/03/13 03:00:25;;;;;;;15.52;8.65;;;;;;;10.87;68.14;101311.88;4957685;28;20062;-80
2023/03/13 03:02:57;;;;;;;14.10;8.32;;;;;;;10.90;68.13;101326.72;4955953;28;20404;-81
2023/03/13 03:05:27;;;;;;;15.85;8.18;;;;;;;10.85;67.93;101340.34;4983209;28;20061;-79
2023/03/13 03:07:57;;;;;;;14.68;7.88;;;;;;;10.28;67.83;101266.91;4960526;28;20054;-81
2023/03/13 03:10:24;;;;;;;15.15;7.72;;;;;;;10.75;67.86;101349.16;4963604;28;20274;-81
2023/03/13 03:12:51;;;;;;;12.68;7.57;;;;;;;10.60;68.33;101340.56;4975190;28;20078;-82
2023/03/13 03:15:17;;;;;;;14.52;8.13;;;;;;;10.54;68.79;101349.00;4955578;28;20372;-79
2023/03/13 03:17:45;;;;;;;14.32;8.15;;;;;;;10.26;69.13;101321.88;4979021;28;20128;-80
2023/03/13 03:20:12;;;;;;;14.27;7.78;;;;;;;10.46;69.50;101365.50;4976322;28;20552;-81
2023/03/13 03:22:42;;;;;;;20.00;7.70;;;;;;;10.02;69.92;101304.22;4972720;28;20389;-81
2023/03/13 03:25:09;;;;;;;18.38;8.00;;;;;;;10.00;69.89;101300.84;4957857;28;20054;-81
2023/03/13 03:27:36;;;;;;;15.63;8.18;;;;;;;9.57;70.27;101224.50;4983006;28;20531;-81
2023/03/13 03:30:09;;;;;;;15.82;8.32;;;;;;;10.19;70.37;101318.00;4961570;28;20054;-81
2023/03/13 03:32:35;;;;;;;16.73;8.50;;;;;;;10.39;70.37;101346.56;4961914;28;20437;-81
2023/03/13 03:35:03;;;;;;;10.55;7.53;;;;;;;10.40;70.31;101350.91;4972762;28;20054;-78
2023/03/13 03:37:32;;;;;;;8.75;7.55;;;;;;;9.83;70.58;101264.13;4972915;28;20061;-79
2023/03/13 03:40:05;;;;;;;17.05;8.40;;;;;;;10.10;70.98;101310.72;4954919;28;20054;-81
2023/03/13 03:42:33;;;;;;;12.43;7.63;;;;;;;9.94;70.60;101280.06;4973343;28;20644;-80
2023/03/13 03:45:03;;;;;;;10.60;6.95;;;;;;;10.42;70.77;101343.66;4958606;28;20463;-78
2023/03/13 03:47:33;;;;;;;15.40;8.70;;;;;;;10.58;70.33;101353.09;4956722;28;20389;-78
2023/03/13 03:50:02;;;;;;;13.18;8.20;;;;;;;10.10;70.14;101278.88;4976325;28;20461;-80
2023/03/13 03:52:29;;;;;;;14.80;8.55;;;;;;;10.57;69.73;101354.91;4957526;28;20135;-81
2023/03/13 03:54:56;;;;;;;13.48;7.75;;;;;;;10.65;70.19;101359.63;4956609;28;20042;-80
2023/03/13 03:57:25;;;;;;;17.77;7.90;;;;;;;10.44;70.25;101323.16;4964762;28;20244;-81
2023/03/13 03:59:52;;;;;;;16.75;8.25;;;;;;;10.51;69.92;101349.22;4971775;28;20053;-80
2023/03/13 04:02:19;;;;;;;15.18;7.45;;;;;;;10.46;70.27;101358.41;4920042;28;20427;-81
2023/03/13 04:04:55;;;;;;;16.58;8.43;;;;;;;10.43;70.27;101361.28;4961635;28;20050;-80
2023/03/13 04:07:28;;;;;;;15.95;8.18;;;;;;;10.34;70.42;101355.81;4976797;28;20262;-79
2023/03/13 04:10:04;;;;;;;15.55;8.68;;;;;;;10.25;69.75;101362.66;4993141;28;20045;-80
2023/03/13 04:12:30;;;;;;;17.05;8.32;;;;;;;10.20;70.06;101352.38;4994748;28;20112;-81
2023/03/13 04:15:04;;;;;;;15.30;8.27;;;;;;;10.30;70.42;101383.56;4973035;28;20140;-80
2023/03/13 04:17:33;;;;;;;13.52;7.97;;;;;;;10.20;70.50;101384.22;4969024;28;20346;-81
2023/03/13 04:20:00;;;;;;;15.60;8.32;;;;;;;10.03;70.75;101364.25;4990012;28;20365;-80
2023/03/13 04:22:27;;;;;;;12.55;8.35;;;;;;;9.94;71.08;101349.03;4970873;28;20306;-80
2023/03/13 04:24:58;;;;;;;15.70;9.43;;;;;;;9.78;71.17;101324.59;4973080;28;20057;-81
2023/03/13 04:27:26;;;;;;;;;;;;;;;10.17;70.86;101386.25;4975546;28;20057;-80
2023/03/13 04:30:03;;;;;;;15.55;8.15;;;;;;;10.11;70.89;101365.50;4951587;28;19922;-80
2023/03/13 04:32:42;;;;;;;25.65;8.68;;;;;;;10.10;71.27;101347.88;4956199;28;20042;-81
2023/03/13 04:35:16;;;;;;;15.40;6.90;;;;;;;10.36;70.87;101351.25;4972854;28;20503;-80
2023/03/13 04:37:43;;;;;;;16.60;8.93;;;;;;;10.82;71.75;101359.16;4979683;28;20054;-80
2023/03/13 04:40:16;;;;;;;14.02;9.35;;;;;;;10.89;68.69;101367.50;4959089;28;20054;-80
2023/03/13 04:42:46;;;;;;;14.02;9.57;;;;;;;10.38;67.82;101363.44;4961891;28;20125;-80
2023/03/13 04:45:17;;;;;;;26.40;10.05;;;;;;;10.36;68.20;101386.59;4982101;28;20271;-80
2023/03/13 04:47:45;;;;;;;17.00;10.15;;;;;;;10.09;68.48;101373.56;4981710;28;20081;-79
2023/03/13 04:50:17;;;;;;;20.75;11.68;;;;;;;9.98;68.63;101370.88;4963146;28;20046;-80
2023/03/13 04:52:43;;;;;;;19.17;12.63;;;;;;;9.88;69.73;101378.66;4963619;28;20212;-79
2023/03/13 04:55:23;;;;;;;21.63;11.98;;;;;;;9.51;70.58;101351.31;4954459;28;20658;-80
2023/03/13 04:57:58;;;;;;;19.45;11.43;;;;;;;9.45;71.10;101363.22;4970983;28;20058;-80
2023/03/13 05:00:26;;;;;;;18.17;11.02;;;;;;;9.67;71.53;101418.19;4962120;28;20054;-79
2023/03/13 05:02:57;;;;;;;17.70;11.43;;;;;;;9.46;71.78;101391.41;4977635;28;20062;-79
2023/03/13 05:05:34;;;;;;;16.65;11.45;;;;;;;9.51;71.73;101412.28;4992127;28;20050;-81
2023/03/13 05:08:10;;;;;;;15.27;10.73;;;;;;;9.45;72.41;101389.72;4990346;28;20054;-80
2023/03/13 05:10:37;;;;;;;16.73;11.50;;;;;;;8.77;72.81;101272.69;4991067;28;20042;-80
2023/03/13 05:13:06;;;;;;;16.35;12.20;;;;;;;9.66;72.54;101419.16;4977869;28;20050;-80
2023/03/13 05:15:34;;;;;;;16.10;11.98;;;;;;;9.33;72.73;101364.13;4988898;28;20084;-80
2023/03/13 05:18:04;;;;;;;19.88;11.60;;;;;;;9.49;72.99;101401.81;4974728;28;20038;-80
2023/03/13 05:20:36;;;;;;;14.38;10.73;;;;;;;9.56;73.18;101418.09;4988724;28;20053;-80
2023/03/13 05:23:10;;;;;;;14.73;11.40;;;;;;;9.57;72.98;101404.75;4977023;28;20133;-79
2023/03/13 05:25:46;;;;;;;14.25;11.07;;;;;;;9.27;72.81;101357.47;4992072;28;20337;-80
2023/03/13 05:28:14;;;;;;;16.20;11.25;;;;;;;9.29;73.09;101363.47;4989300;28;20058;-81
2023/03/13 05:30:48;;;;;;;16.50;11.40;;;;;;;9.67;73.15;101441.22;4975724;28;20058;-80
2023/03/13 05:33:19;;;;;;;16.77;11.00;;;;;;;9.62;72.58;101446.84;4960146;28;20073;-80
2023/03/13 05:35:53;;;;;;;16.10;11.43;;;;;;;9.45;72.34;101432.13;4956010;28;20050;-82
2023/03/13 05:38:20;;;;;;;14.88;10.52;;;;;;;9.40;72.75;101439.56;4964532;28;20528;-80
2023/03/13 05:40:55;;;;;;;19.65;11.63;;;;;;;9.38;73.25;101450.28;4957816;28;20058;-81
2023/03/13 05:43:27;;;;;;;13.43;11.63;;;;;;;9.15;73.32;101406.84;4961861;28;20050;-80
2023/03/13 05:45:57;;;;;;;21.02;12.02;;;;;;;9.42;73.92;101458.88;4963135;28;20125;-80
2023/03/13 05:48:27;;;;;;;16.38;11.55;;;;;;;9.17;73.85;101420.84;4957320;28;20157;-80
2023/03/13 05:50:57;;;;;;;16.98;12.05;;;;;;;9.27;74.35;101433.44;4949084;28;20911;-79
2023/03/13 05:53:27;;;;;;;22.05;12.35;;;;;;;9.47;74.48;101448.78;4968409;28;20057;-79
2023/03/13 05:55:54;;;;;;;19.20;11.93;;;;;;;8.83;73.96;101339.38;4957815;28;20046;-78
2023/03/13 05:58:21;;;;;;;15.60;11.68;;;;;;;9.29;73.80;101415.63;4974503;28;20061;-79
2023/03/13 06:01:00;;;;;;;13.55;10.93;;;;;;;9.46;73.76;101455.03;4965701;28;20038;-78
2023/03/13 06:03:28;;;;;;;14.90;11.75;;;;;;;9.39;73.64;101449.34;4996714;28;20050;-80
2023/03/13 06:06:03;;;;;;;18.20;12.07;;;;;;;9.45;73.78;101466.59;4979413;28;20057;-80
2023/03/13 06:08:50;;;;;;;14.07;11.20;;;;;;;9.13;73.54;101426.47;4982727;28;20057;-79
2023/03/13 06:11:19;;;;;;;17.33;12.13;;;;;;;9.24;74.23;101454.84;4988896;28;20285;-79
2023/03/13 06:13:53;;;;;;;20.50;12.55;;;;;;;8.98;73.98;101401.88;4989321;28;20061;-80
2023/03/13 06:16:24;;;;;;;17.35;12.10;;;;;;;9.36;73.82;101453.97;4994688;28;20206;-79
2023/03/13 06:18:59;;;;;;;23.90;12.00;;;;;;;9.02;73.66;101410.47;5000848;28;20279;-79
2023/03/13 06:21:25;;;;;;;16.58;12.15;;;;;;;8.75;73.58;101369.88;5001759;28;20056;-80
2023/03/13 06:23:55;;;;;;;24.85;13.32;;;;;;;9.29;73.40;101468.63;4995985;28;20145;-79
2023/03/13 06:26:25;;;;;;;18.35;12.20;;;;;;;9.38;73.96;101481.22;4988264;28;20492;-79
2023/03/13 06:28:52;;;;;;;25.35;12.18;;;;;;;9.42;73.58;101480.06;4987853;28;20062;-79
2023/03/13 06:31:18;;;;;;;17.27;12.50;;;;;;;9.13;73.37;101443.19;4972547;28;20420;-79
2023/03/13 06:33:53;;;;;;;17.73;13.65;;;;;;;9.25;73.81;101465.34;5003549;28;20046;-81
2023/03/13 06:36:21;;;;;;;21.38;14.23;;;;;;;9.07;74.25;101427.72;4978708;28;20060;-80
2023/03/13 06:38:47;;;;;;;32.38;15.38;;;;;;;9.35;74.07;101476.16;4963335;28;20350;-79
2023/03/13 06:41:27;;;;;;;28.33;15.52;;;;;;;9.37;74.39;101487.50;4960630;28;20499;-79
2023/03/13 06:44:02;;;;;;;21.70;14.77;;;;;;;9.02;73.71;101423.69;4984376;28;20046;-79
2023/03/13 06:46:32;;;;;;;20.10;14.63;;;;;;;9.29;74.17;101474.75;4978010;28;20042;-78
2023/03/13 06:49:03;;;;;;;26.77;15.13;;;;;;;9.38;74.09;101483.88;4978517;28;20050;-80
2023/03/13 06:51:30;;;;;;;22.73;14.90;;;;;;;9.38;74.39;101468.81;4976270;28;20051;-80
2023/03/13 06:54:02;;;;;;;20.90;14.50;;;;;;;9.36;74.52;101459.28;4975524;28;20373;-80
2023/03/13 06:56:39;;;;;;;23.40;16.63;;;;;;;9.46;74.76;101478.88;4944897;28;20452;-80
2023/03/13 06:59:08;;;;;;;26.55;16.73;;;;;;;9.50;74.35;101487.47;4965505;28;20076;-80
2023/03/13 07:01:35;;;;;;;20.83;16.05;;;;;;;9.55;74.31;101491.50;4962362;28;20465;-80
2023/03/13 07:04:03;;;;;;;24.80;15.02;;;;;;;9.39;74.77;101459.94;4984490;28;20492;-78
2023/03/13 07:06:32;;;;;;;26.02;15.15;;;;;;;9.57;74.23;101489.59;5000282;28;20116;-80
2023/03/13 07:09:15;;;;;;;24.83;15.93;;;;;;;9.63;74.59;101504.19;4984894;28;20330;-81
2023/03/13 07:11:54;;;;;;;27.88;15.95;;;;;;;9.48;74.44;101471.66;5000313;28;20335;-80
2023/03/13 07:14:21;;;;;;;32.00;17.00;;;;;;;9.44;74.47;101445.50;4951036;28;20305;-81
2023/03/13 07:17:00;;;;;;;27.33;17.83;;;;;;;9.56;74.56;101449.91;4975974;28;20042;-78
2023/03/13 07:19:34;;;;;;;25.48;16.27;;;;;;;9.75;74.09;101470.66;4963686;28;20173;-80
2023/03/13 07:22:02;;;;;;;24.30;16.63;;;;;;;9.63;74.03;101432.63;4977911;28;20058;-78
2023/03/13 07:24:28;;;;;;;32.30;17.63;;;;;;;9.83;73.98;101463.03;4976297;28;20050;-79
2023/03/13 07:26:57;;;;;;;27.75;16.58;;;;;;;10.01;73.91;101482.91;4972008;28;20050;-81
2023/03/13 07:29:33;;;;;;;22.88;16.63;;;;;;;9.90;73.42;101440.38;4958504;28;20054;-78
2023/03/13 07:32:03;;;;;;;31.20;16.95;;;;;;;10.08;73.24;101453.28;4957687;28;20298;-79
2023/03/13 07:34:31;;;;;;;32.25;16.90;;;;;;;10.31;73.29;101476.31;4969867;28;20050;-78
2023/03/13 07:37:04;;;;;;;27.10;18.00;;;;;;;10.39;72.51;101473.97;4983019;28;20037;-79
2023/03/13 07:39:32;;;;;;;34.40;17.85;;;;;;;10.42;72.61;101454.31;4983106;28;20050;-78
2023/03/13 07:42:10;;;;;;;29.08;17.33;;;;;;;10.62;71.67;101460.78;5001652;28;20049;-77
2023/03/13 07:44:37;;;;;;;28.55;17.27;;;;;;;10.63;71.72;101462.47;5005246;28;20618;-80
2023/03/13 07:47:04;;;;;;;23.73;16.92;;;;;;;10.06;70.76;101363.19;5000235;28;20317;-78
2023/03/13 07:49:39;;;;;;;38.80;18.48;;;;;;;10.72;71.43;101471.56;4987178;28;20057;-78
2023/03/13 07:52:14;;;;;;;31.05;18.27;;;;;;;10.77;72.01;101472.88;4976889;28;20054;-77
2023/03/13 07:54:41;;;;;;;30.15;18.45;;;;;;;10.68;70.88;101455.84;4963180;28;20307;-78
2023/03/13 07:57:14;;;;;;;27.25;18.58;;;;;;;10.81;70.08;101479.66;4964841;28;20065;-76
2023/03/13 07:59:48;;;;;;;36.47;19.15;;;;;;;10.77;71.20;101470.22;4963756;28;20073;-77
2023/03/13 08:02:24;;;;;;;28.42;19.27;;;;;;;10.78;71.27;101477.25;4967128;28;20156;-79
2023/03/13 08:04:55;;;;;;;36.75;17.85;;;;;;;10.42;71.16;101412.69;4964493;28;20053;-77
2023/03/13 08:07:30;;;;;;;31.60;18.52;;;;;;;10.72;71.04;101467.09;4961000;28;20409;-80
2023/03/13 08:10:01;;;;;;;31.17;19.38;;;;;;;10.75;71.40;101469.50;4960686;28;20228;-79
2023/03/13 08:12:35;;;;;;;31.08;18.98;;;;;;;10.39;71.05;101418.22;4956734;28;20366;-80
2023/03/13 08:15:04;;;;;;;33.45;20.85;;;;;;;10.73;71.67;101479.41;4961065;28;20065;-79
2023/03/13 08:17:34;;;;;;;30.27;20.25;;;;;;;10.75;71.25;101466.84;4963698;28;20366;-79
2023/03/13 08:20:14;;;;;;;27.90;20.42;;;;;;;10.76;72.06;101473.88;4961739;28;20504;-80
2023/03/13 08:22:49;;;;;;;37.03;19.75;;;;;;;10.76;71.88;101476.53;4961558;28;20362;-82
2023/03/13 08:25:17;;;;;;;29.10;17.88;;;;;;;10.90;72.16;101489.59;4962988;28;20077;-79
2023/03/13 08:27:44;;;;;;;30.83;20.27;;;;;;;11.07;72.27;101482.16;4962675;28;20097;-82
2023/03/13 08:30:13;;;;;;;34.70;20.65;;;;;;;11.07;73.21;101472.38;4963845;28;20483;-78
2023/03/13 08:32:42;;;;;;;30.17;19.30;;;;;;;11.13;73.12;101461.25;4953561;28;20061;-77
2023/03/13 08:35:15;;;;;;;35.95;20.08;;;;;;;11.21;73.32;101449.16;4965593;28;20050;-80
2023/03/13 08:37:42;;;;;;;48.15;19.13;;;;;;;11.50;72.58;101469.00;4970487;28;20042;-79
2023/03/13 08:40:10;;;;;;;31.33;17.48;;;;;;;11.38;72.92;101443.38;4964499;28;20060;-80
2023/03/13 08:42:40;;;;;;;31.63;18.08;;;;;;;11.31;72.74;101421.78;4968683;28;20371;-79
2023/03/13 08:45:08;;;;;;;30.92;18.00;;;;;;;11.41;72.87;101427.19;4968056;28;20129;-80
2023/03/13 08:47:42;;;;;;;33.55;18.13;;;;;;;11.49;73.60;101450.53;4962139;28;20515;-79
2023/03/13 08:50:14;;;;;;;28.13;17.15;;;;;;;11.21;74.27;101414.63;4960674;28;20062;-81
2023/03/13 08:52:43;;;;;;;23.52;13.45;;;;;;;11.79;71.38;101435.72;4976639;28;20046;-80
2023/03/13 08:55:11;;;;;;;30.52;18.20;;;;;;;11.86;72.07;101427.13;4964383;28;20081;-81
2023/03/13 08:57:37;;;;;;;29.75;17.75;;;;;;;12.12;72.24;101464.94;4965284;28;20062;-80
2023/03/13 09:00:09;;;;;;;32.55;18.55;;;;;;;12.18;72.26;101461.81;4985931;28;20050;-80
2023/03/13 09:02:36;;;;;;;28.97;17.33;;;;;;;12.27;71.57;101472.66;4968662;28;20313;-81
2023/03/13 09:05:09;;;;;;;35.95;18.73;;;;;;;12.24;71.84;101470.25;4957427;28;20217;-78
2023/03/13 09:07:37;;;;;;;25.25;16.77;;;;;;;12.11;72.18;101468.59;4960504;28;20046;-80
2023/03/13 09:10:05;;;;;;;32.67;16.52;;;;;;;12.16;72.15;101471.72;4958608;28;20073;-80
2023/03/13 09:12:31;;;;;;;29.35;17.33;;;;;;;12.18;72.68;101476.91;4961829;28;20500;-80
2023/03/13 09:14:58;;;;;;;26.98;16.23;;;;;;;12.02;72.92;101432.09;4954733;28;20135;-79
2023/03/13 09:17:30;;;;;;;24.98;16.05;;;;;;;12.39;71.99;101471.63;4961109;28;20046;-79
2023/03/13 09:20:03;;;;;;;26.35;15.00;;;;;;;12.33;71.91;101441.06;4954944;28;20062;-81
2023/03/13 09:22:32;;;;;;;23.27;14.75;;;;;;;12.44;71.88;101453.47;4960159;28;20058;-81
2023/03/13 09:24:58;;;;;;;24.73;15.25;;;;;;;12.58;71.80;101469.13;4963937;28;20051;-79
2023/03/13 09:27:27;;;;;;;20.42;12.20;;;;;;;13.00;69.28;101477.13;4950477;28;20413;-79
2023/03/13 09:29:55;;;;;;;26.17;16.50;;;;;;;13.05;69.31;101450.94;4960947;28;20667;-77
2023/03/13 09:32:26;;;;;;;27.73;17.27;;;;;;;13.31;68.84;101481.69;4960682;28;20043;-80
2023/03/13 09:34:54;;;;;;;31.90;17.30;;;;;;;13.36;69.07;101469.66;4961660;28;20480;-79
2023/03/13 09:37:21;;;;;;;25.10;15.10;;;;;;;13.51;68.79;101487.97;4959735;28;20046;-80
2023/03/13 09:39:48;;;;;;;27.30;14.93;;;;;;;13.70;68.10;101489.88;4964551;28;20058;-78
2023/03/13 09:42:19;;;;;;;21.63;12.20;;;;;;;13.94;66.13;101489.53;4958547;28;20050;-80
2023/03/13 09:45:02;;;;;;;27.63;16.27;;;;;;;13.93;66.79;101485.16;4947697;28;20046;-78
2023/03/13 09:47:41;;;;;;;33.03;16.98;;;;;;;13.77;66.45;101443.81;4959339;28;20164;-79
2023/03/13 09:50:28;;;;;;;26.40;15.77;;;;;;;14.00;66.05;101475.59;4964462;28;20057;-76
2023/03/13 09:53:03;;;;;;;28.20;17.35;;;;;;;14.27;66.13;101494.50;4960638;28;20058;-79
2023/03/13 09:55:35;;;;;;;24.33;13.80;;;;;;;14.29;65.87;101481.81;4974398;28;20047;-77
2023/03/13 09:58:25;;;;;;;34.50;18.50;;;;;;;14.31;65.51;101465.69;4983152;28;20050;-78
2023/03/13 10:01:05;;;;;;;28.92;17.45;;;;;;;14.13;65.72;101433.50;4953609;28;20650;-80
2023/03/13 10:03:47;;;;;;;26.92;15.07;;;;;;;14.47;65.74;101473.16;4969975;28;20061;-80
2023/03/13 10:06:18;;;;;;;20.92;15.82;;;;;;;14.58;65.32;101470.34;4976063;28;20486;-77
2023/03/13 10:08:46;;;;;;;26.58;15.85;;;;;;;14.47;64.89;101430.41;4984371;28;20206;-79
2023/03/13 10:11:16;;;;;;;27.48;16.15;;;;;;;14.76;64.31;101473.16;4990969;28;20054;-77
2023/03/13 10:13:55;;;;;;;22.95;14.55;;;;;;;14.68;64.43;101455.13;4974883;28;20137;-80
2023/03/13 10:16:37;;;;;;;25.60;13.48;;;;;;;14.54;63.32;101399.50;4976157;28;20386;-80
2023/03/13 10:19:26;;;;;;;;;;;;;;;15.16;62.34;101458.72;4974009;28;20511;-80
2023/03/13 10:21:58;;;;;;;26.42;16.15;;;;;;;14.95;63.99;101438.38;4977195;28;19926;-79
2023/03/13 10:24:58;;;;;;;;;;;;;;;15.07;63.64;101447.06;4974076;28;20083;-79
2023/03/13 10:27:47;;;;;;;26.58;16.02;;;;;;;14.80;63.79;101393.53;4947514;28;19922;-78
2023/03/13 10:30:35;;;;;;;20.70;15.40;;;;;;;15.69;61.49;101438.50;4948053;28;20061;-80
2023/03/13 10:33:06;;;;;;;34.22;19.67;;;;;;;14.25;62.58;101218.72;4954848;28;20046;-80
2023/03/13 10:35:39;;;;;;;32.58;19.70;;;;;;;15.43;62.82;101417.78;4964618;28;20085;-81
2023/03/13 10:38:17;;;;;;;30.10;18.58;;;;;;;15.32;63.43;101426.84;4985784;28;20085;-81
2023/03/13 10:41:23;;;;;;;31.17;17.85;;;;;;;15.34;63.51;101430.22;4985326;28;20111;-80
2023/03/13 10:44:14;;;;;;;38.53;19.27;;;;;;;15.41;63.74;101430.44;4975294;28;20049;-81
2023/03/13 10:46:44;;;;;;;26.90;17.33;;;;;;;15.45;63.51;101434.53;4991596;28;20515;-80
2023/03/13 10:49:19;;;;;;;31.33;19.87;;;;;;;14.98;63.06;101324.94;4975676;28;20133;-79
2023/03/13 10:51:52;;;;;;;28.42;17.05;;;;;;;15.65;62.20;101432.59;4959606;28;20061;-79
2023/03/13 10:54:36;;;;;;;27.85;16.10;;;;;;;15.28;62.32;101376.47;4968274;28;20042;-81
2023/03/13 10:57:18;;;;;;;25.75;17.35;;;;;;;15.54;62.17;101430.97;4960842;28;20361;-80
2023/03/13 10:59:55;;;;;;;28.90;19.15;;;;;;;15.74;61.52;101425.53;4968965;28;20707;-80
2023/03/13 11:02:27;;;;;;;27.13;16.05;;;;;;;15.68;61.72;101399.31;4974108;28;20050;-80
2023/03/13 11:04:55;;;;;;;37.45;18.27;;;;;;;14.97;61.71;101280.47;4977061;28;20076;-80
2023/03/13 11:07:39;;;;;;;34.78;18.70;;;;;;;15.86;61.67;101397.56;4988683;28;20110;-81
2023/03/13 11:10:22;;;;;;;29.05;16.83;;;;;;;16.03;61.28;101410.09;4968280;28;20800;-79
2023/03/13 11:12:52;;;;;;;28.25;15.10;;;;;;;16.02;58.66;101324.59;4952843;28;20097;-79
2023/03/13 11:15:24;;;;;;;;;;;;;;;16.30;58.55;101394.94;4952812;28;20058;-78
2023/03/13 11:18:20;;;;;;;26.50;18.15;;;;;;;16.05;59.58;101377.00;4957547;28;19922;-80
2023/03/13 11:20:57;;;;;;;36.83;18.80;;;;;;;15.79;59.89;101349.13;4983418;28;20049;-79
2023/03/13 11:23:53;;;;;;;23.17;14.40;;;;;;;16.51;57.37;101391.94;4991438;28;20085;-76
2023/03/13 11:26:38;;;;;;;26.10;15.10;;;;;;;16.43;57.12;101379.34;4978349;28;20050;-79
2023/03/13 11:29:40;;;;;;;26.02;15.35;;;;;;;16.50;57.75;101381.38;4999603;28;20250;-87
2023/03/13 11:32:29;;;;;;;21.95;14.93;;;;;;;16.38;57.93;101362.88;4994757;28;20144;-80
2023/03/13 11:35:05;;;;;;;23.63;14.10;;;;;;;16.60;56.84;101353.50;4990413;28;20484;-78
2023/03/13 11:37:38;;;;;;;21.38;14.85;;;;;;;16.73;56.99;101354.91;4982088;28;20508;-78
2023/03/13 11:40:25;;;;;;;23.55;18.30;;;;;;;16.59;59.05;101340.22;4965860;28;20446;-79